Time;durP1;ratioP1;P1;durP2;ratioP2;P2;SDS_P1;SDS_P2;PMS_P1;PMS_P2;Temp;Humidity;BMP_temperature;BMP_pressure;BME280_temperature;BME280_humidity;BME280_pressure;Samples;Min_cycle;Max_cycle;Signal;HPM_P1;HPM_P2
2021/07/25 00:00:41;;;;;;;12.83;8.90;;;19.20;99.90;;;;;;5022644;28;20237;-86
2021/07/25 00:03:08;;;;;;;19.37;10.07;;;19.20;99.90;;;;;;5038611;28;20333;-87
2021/07/25 00:05:34;;;;;;;11.90;7.90;;;19.20;99.90;;;;;;5039000;28;20245;-88
2021/07/25 00:08:00;;;;;;;12.37;8.70;;;19.10;99.90;;;;;;5038785;28;20250;-86
2021/07/25 00:10:27;;;;;;;15.53;10.13;;;19.20;99.90;;;;;;5039022;28;20499;-87
2021/07/25 00:12:53;;;;;;;14.23;8.60;;;19.10;99.90;;;;;;5038158;28;20221;-86
2021/07/25 00:15:19;;;;;;;16.80;9.90;;;19.20;99.90;;;;;;5038599;28;20225;-86
2021/07/25 00:17:45;;;;;;;19.03;9.53;;;19.10;99.90;;;;;;5048139;28;20228;-85
2021/07/25 00:20:12;;;;;;;14.70;8.20;;;19.10;99.90;;;;;;5052822;28;20594;-85
2021/07/25 00:22:38;;;;;;;15.40;9.40;;;19.10;99.90;;;;;;5020410;28;20746;-86
2021/07/25 00:25:08;;;;;;;13.00;8.63;;;19.10;99.90;;;;;;5022337;28;20643;-87
2021/07/25 00:27:41;;;;;;;15.90;8.17;;;19.10;99.90;;;;;;5036583;28;20332;-87
2021/07/25 00:30:09;;;;;;;17.67;9.03;;;19.10;99.90;;;;;;5037938;28;20221;-87
2021/07/25 00:32:34;;;;;;;19.33;9.47;;;19.10;99.90;;;;;;5035958;28;20225;-85
2021/07/25 00:35:00;;;;;;;18.00;9.83;;;19.10;99.90;;;;;;5037389;28;20290;-84
2021/07/25 00:37:26;;;;;;;13.07;8.23;;;19.10;99.90;;;;;;5010792;28;20186;-86
2021/07/25 00:39:52;;;;;;;12.50;7.67;;;19.10;99.90;;;;;;5037580;28;20228;-86
2021/07/25 00:42:18;;;;;;;10.47;7.03;;;19.20;99.90;;;;;;5031825;28;20218;-87
2021/07/25 00:44:43;;;;;;;16.87;8.10;;;19.10;99.90;;;;;;5031673;28;20229;-89
2021/07/25 00:47:09;;;;;;;13.53;6.90;;;19.10;99.90;;;;;;5030114;28;20234;-88
2021/07/25 00:49:36;;;;;;;11.53;7.60;;;19.10;99.90;;;;;;5029970;28;20311;-89
2021/07/25 00:52:04;;;;;;;12.57;7.07;;;19.00;99.90;;;;;;5039906;28;20198;-89
2021/07/25 00:54:30;;;;;;;12.57;6.93;;;19.00;99.90;;;;;;5041166;28;20295;-89
2021/07/25 00:56:55;;;;;;;14.70;8.00;;;19.00;99.90;;;;;;5039605;28;20221;-88
2021/07/25 00:59:21;;;;;;;11.80;7.20;;;19.10;99.90;;;;;;5040593;28;20222;-88
2021/07/25 01:01:49;;;;;;;10.47;7.27;;;19.10;99.90;;;;;;5039699;28;20190;-87
2021/07/25 01:04:35;;;;;;;13.33;7.27;;;19.10;99.90;;;;;;5041956;28;20305;-89
2021/07/25 01:07:20;;;;;;;14.77;8.10;;;19.10;99.90;;;;;;5056939;28;20214;-89
2021/07/25 01:10:01;;;;;;;14.43;8.07;;;19.10;99.90;;;;;;5041191;28;20357;-89
2021/07/25 01:12:54;;;;;;;10.50;7.00;;;19.10;99.90;;;;;;5054864;28;21124;-90
2021/07/25 01:15:23;;;;;;;19.00;7.07;;;19.00;99.90;;;;;;5044886;28;20229;-90
2021/07/25 01:17:49;;;;;;;19.40;8.40;;;19.10;99.90;;;;;;5033169;28;20222;-89
2021/07/25 01:20:15;;;;;;;10.33;6.53;;;19.10;99.90;;;;;;5040407;28;20218;-88
2021/07/25 01:22:47;;;;;;;10.23;6.80;;;19.20;99.90;;;;;;5022922;28;20182;-90
2021/07/25 01:25:15;;;;;;;13.13;7.90;;;19.10;99.90;;;;;;5040142;28;20214;-89
2021/07/25 01:27:48;;;;;;;9.13;6.20;;;19.10;99.90;;;;;;5039960;28;20301;-88
2021/07/25 01:30:18;;;;;;;12.63;6.93;;;19.00;99.90;;;;;;5040633;28;20271;-90
2021/07/25 01:32:44;;;;;;;20.13;7.73;;;19.00;99.90;;;;;;5039508;28;20219;-88
2021/07/25 01:35:13;;;;;;;10.60;6.43;;;19.00;99.90;;;;;;5037895;28;20226;-89
2021/07/25 01:37:39;;;;;;;8.70;7.07;;;19.00;99.90;;;;;;5037195;28;20218;-85
2021/07/25 01:40:11;;;;;;;10.27;5.23;;;19.10;99.90;;;;;;5031084;28;20184;-87
2021/07/25 01:42:36;;;;;;;11.17;6.30;;;19.00;99.90;;;;;;5038164;28;20283;-86
2021/07/25 01:45:03;;;;;;;10.67;5.07;;;19.00;99.90;;;;;;5030482;28;20233;-87
2021/07/25 01:47:29;;;;;;;8.50;6.00;;;18.90;99.90;;;;;;5038855;28;20225;-88
2021/07/25 01:49:55;;;;;;;6.73;4.40;;;18.90;99.90;;;;;;5042494;28;20237;-85
2021/07/25 01:52:21;;;;;;;9.37;6.70;;;18.80;99.90;;;;;;5054982;28;20197;-86
2021/07/25 01:54:47;;;;;;;8.27;5.13;;;18.90;99.90;;;;;;5056588;28;20232;-85
2021/07/25 01:57:13;;;;;;;10.63;6.00;;;18.90;99.90;;;;;;5036218;28;20245;-85
2021/07/25 01:59:38;;;;;;;8.90;5.80;;;18.90;99.90;;;;;;5029764;28;20761;-85
2021/07/25 02:02:04;;;;;;;13.60;6.33;;;18.80;99.90;;;;;;5030939;28;20308;-84
2021/07/25 02:04:30;;;;;;;9.57;5.20;;;18.80;99.90;;;;;;5056628;28;20344;-85
2021/07/25 02:06:55;;;;;;;5.77;4.00;;;18.80;99.90;;;;;;5057419;28;20216;-86
2021/07/25 02:09:21;;;;;;;5.87;4.23;;;18.70;99.90;;;;;;5021923;28;20283;-89
2021/07/25 02:11:47;;;;;;;5.43;3.73;;;18.70;99.90;;;;;;5022483;28;20295;-87
2021/07/25 02:14:14;;;;;;;6.23;3.77;;;18.70;99.90;;;;;;5058020;28;20554;-88
2021/07/25 02:16:40;;;;;;;10.67;5.63;;;18.70;99.90;;;;;;5040851;28;20198;-87
2021/07/25 02:19:05;;;;;;;11.37;6.03;;;18.70;99.90;;;;;;5059475;28;20205;-86
2021/07/25 02:21:31;;;;;;;9.47;4.77;;;18.70;99.90;;;;;;5021117;28;20264;-85
2021/07/25 02:23:57;;;;;;;11.27;4.80;;;18.70;99.90;;;;;;5008462;28;20308;-86
2021/07/25 02:26:23;;;;;;;7.33;4.57;;;18.70;99.90;;;;;;5050758;28;20232;-87
2021/07/25 02:28:48;;;;;;;11.27;5.73;;;18.70;99.90;;;;;;5021889;28;20201;-86
2021/07/25 02:31:14;;;;;;;7.67;5.33;;;18.60;99.90;;;;;;5021695;28;20198;-88
2021/07/25 02:33:40;;;;;;;8.43;5.10;;;18.50;99.90;;;;;;5035847;28;20337;-87
2021/07/25 02:36:05;;;;;;;6.83;4.20;;;18.50;99.90;;;;;;5028272;28;20214;-87
2021/07/25 02:38:31;;;;;;;12.40;5.70;;;18.40;99.90;;;;;;5037834;28;20232;-87
2021/07/25 02:40:57;;;;;;;5.60;3.20;;;18.40;99.90;;;;;;5022825;28;20221;-88
2021/07/25 02:43:22;;;;;;;12.93;4.23;;;18.30;99.90;;;;;;5037041;28;20194;-87
2021/07/25 02:45:48;;;;;;;10.93;4.77;;;18.30;99.90;;;;;;5012917;28;20785;-87
2021/07/25 02:48:14;;;;;;;8.23;4.70;;;18.30;99.90;;;;;;5028819;28;20218;-89
2021/07/25 02:50:40;;;;;;;12.83;5.30;;;18.30;99.90;;;;;;5020456;28;20251;-88
2021/07/25 02:53:06;;;;;;;4.40;4.00;;;18.30;99.90;;;;;;5051441;28;20229;-90
2021/07/25 02:55:31;;;;;;;7.27;4.73;;;18.30;99.90;;;;;;5042043;28;20665;-88
2021/07/25 02:57:57;;;;;;;11.53;5.33;;;18.30;99.90;;;;;;5038960;28;20284;-90
2021/07/25 03:00:23;;;;;;;8.93;5.40;;;18.30;99.90;;;;;;5039009;28;20296;-90
2021/07/25 03:02:49;;;;;;;10.97;4.90;;;18.40;99.90;;;;;;5021839;28;20221;-89
2021/07/25 03:05:14;;;;;;;8.37;6.10;;;18.40;99.90;;;;;;5022832;28;20756;-89
2021/07/25 03:07:41;;;;;;;21.20;6.50;;;18.40;99.90;;;;;;5022403;28;20182;-91
2021/07/25 03:10:07;;;;;;;10.40;6.07;;;18.40;99.90;;;;;;5022753;28;20238;-88
2021/07/25 03:12:34;;;;;;;10.43;4.53;;;18.30;99.90;;;;;;5038565;28;20218;-89
2021/07/25 03:15:00;;;;;;;8.80;5.03;;;18.30;99.90;;;;;;5035413;28;20232;-90
2021/07/25 03:17:26;;;;;;;5.90;4.27;;;18.20;99.90;;;;;;5038138;28;21107;-91
2021/07/25 03:19:52;;;;;;;7.60;4.70;;;18.10;99.90;;;;;;5020912;28;20920;-91
2021/07/25 03:22:17;;;;;;;8.63;5.67;;;18.10;99.90;;;;;;5036620;28;20193;-88
2021/07/25 03:24:43;;;;;;;13.93;7.40;;;18.10;99.90;;;;;;5035845;28;20222;-92
2021/07/25 03:27:09;;;;;;;12.20;6.70;;;18.10;99.90;;;;;;5036834;28;20226;-94
2021/07/25 03:29:35;;;;;;;9.20;5.83;;;18.10;99.90;;;;;;5018196;28;20663;-89
2021/07/25 03:32:01;;;;;;;13.80;7.03;;;18.10;99.90;;;;;;5037964;28;20276;-92
2021/07/25 03:34:31;;;;;;;9.93;5.53;;;18.10;99.90;;;;;;5038761;28;20301;-91
2021/07/25 03:36:57;;;;;;;5.00;4.00;;;18.10;99.90;;;;;;5023057;28;20296;-89
2021/07/25 03:39:24;;;;;;;6.13;4.40;;;18.10;99.90;;;;;;5038993;28;20313;-92
2021/07/25 03:41:50;;;;;;;7.97;5.17;;;18.10;99.90;;;;;;5048533;28;20221;-89
2021/07/25 03:44:16;;;;;;;6.30;4.73;;;18.10;99.90;;;;;;5044504;28;21022;-93
2021/07/25 03:46:42;;;;;;;6.87;3.67;;;18.10;99.90;;;;;;5051812;28;20211;-89
2021/07/25 03:49:09;;;;;;;9.63;5.50;;;18.10;99.90;;;;;;5016687;28;20190;-88
2021/07/25 03:51:37;;;;;;;12.90;6.33;;;18.00;99.90;;;;;;5028427;28;20585;-92
2021/07/25 03:54:05;;;;;;;7.67;5.00;;;18.10;99.90;;;;;;5050353;28;20221;-89
2021/07/25 03:56:31;;;;;;;8.20;5.63;;;18.10;99.90;;;;;;5071789;28;20633;-90
2021/07/25 03:59:04;;;;;;;8.63;5.60;;;18.10;99.90;;;;;;5060736;28;20217;-93
2021/07/25 04:01:30;;;;;;;12.60;6.90;;;18.10;99.90;;;;;;5062246;28;20185;-92
2021/07/25 04:03:58;;;;;;;11.57;6.80;;;18.20;99.90;;;;;;5025894;28;20244;-93
2021/07/25 04:06:26;;;;;;;10.50;6.97;;;18.20;99.90;;;;;;5041606;28;20217;-92
2021/07/25 04:08:52;;;;;;;11.70;7.87;;;18.30;99.90;;;;;;5061207;28;20227;-92
2021/07/25 04:11:20;;;;;;;12.63;7.33;;;18.30;99.90;;;;;;5063073;28;20237;-91
2021/07/25 04:13:47;;;;;;;19.40;8.27;;;18.30;99.90;;;;;;5060735;28;20331;-89
2021/07/25 04:16:13;;;;;;;13.43;8.30;;;18.40;99.90;;;;;;5061941;28;20352;-91
2021/07/25 04:18:39;;;;;;;16.27;7.77;;;18.40;99.90;;;;;;5061642;28;20213;-91
2021/07/25 04:21:08;;;;;;;9.40;7.00;;;18.40;99.90;;;;;;5061402;28;20267;-94
2021/07/25 04:23:40;;;;;;;11.80;5.47;;;18.40;99.90;;;;;;5060364;28;20216;-91
2021/07/25 04:26:06;;;;;;;7.93;4.70;;;18.40;99.90;;;;;;5061501;28;20218;-89
2021/07/25 04:28:32;;;;;;;9.00;6.00;;;18.50;99.90;;;;;;5044518;28;20186;-90
2021/07/25 04:30:58;;;;;;;14.43;6.53;;;18.50;99.90;;;;;;5053703;28;20193;-89
2021/07/25 04:33:24;;;;;;;10.03;6.10;;;18.40;99.90;;;;;;5060911;28;20220;-90
2021/07/25 04:35:53;;;;;;;12.80;6.87;;;18.60;99.90;;;;;;5060295;28;20229;-89
2021/07/25 04:38:20;;;;;;;15.03;8.33;;;18.60;99.90;;;;;;5025388;28;20732;-92
2021/07/25 04:40:52;;;;;;;8.33;5.17;;;18.70;99.90;;;;;;5032337;28;20183;-89
2021/07/25 04:43:22;;;;;;;12.80;5.83;;;18.60;99.90;;;;;;5032661;28;20208;-87
2021/07/25 04:46:00;;;;;;;13.17;6.67;;;18.60;99.90;;;;;;5040361;28;20245;-89
2021/07/25 04:48:57;;;;;;;9.23;6.70;;;18.60;99.90;;;;;;5049427;28;20222;-88
2021/07/25 04:51:23;;;;;;;7.13;5.33;;;18.60;99.90;;;;;;5047926;28;21249;-87
2021/07/25 04:53:51;;;;;;;8.73;6.27;;;18.60;99.90;;;;;;5037914;28;20912;-87
2021/07/25 04:56:19;;;;;;;13.40;6.50;;;18.50;99.90;;;;;;5023406;28;20213;-88
2021/07/25 04:58:49;;;;;;;8.73;5.50;;;18.40;99.90;;;;;;5040667;28;20213;-87
2021/07/25 05:01:24;;;;;;;12.63;6.67;;;18.30;99.90;;;;;;5049657;28;20276;-89
2021/07/25 05:03:51;;;;;;;10.43;7.00;;;18.30;99.90;;;;;;5041379;28;20237;-89
2021/07/25 05:06:17;;;;;;;10.97;7.97;;;18.30;99.90;;;;;;5056550;28;20304;-92
2021/07/25 05:08:43;;;;;;;13.03;8.50;;;18.40;99.90;;;;;;5023905;28;20644;-93
2021/07/25 05:11:15;;;;;;;13.07;7.40;;;18.40;99.90;;;;;;5040074;28;20299;-89
2021/07/25 05:13:44;;;;;;;15.03;8.23;;;18.40;99.90;;;;;;5040859;28;20194;-88
2021/07/25 05:16:13;;;;;;;14.07;7.77;;;18.40;99.90;;;;;;5032671;28;20232;-89
2021/07/25 05:18:45;;;;;;;15.90;8.10;;;18.40;99.90;;;;;;5040106;28;20217;-88
2021/07/25 05:21:29;;;;;;;12.47;7.23;;;18.40;99.90;;;;;;5040763;28;20232;-89
2021/07/25 05:23:57;;;;;;;10.63;7.47;;;18.40;99.90;;;;;;5036465;28;20238;-91
2021/07/25 05:26:25;;;;;;;14.80;8.27;;;18.40;99.90;;;;;;5039867;28;21271;-90
2021/07/25 05:28:56;;;;;;;14.03;7.77;;;18.40;99.90;;;;;;5031154;28;20226;-87
2021/07/25 05:31:30;;;;;;;12.50;7.97;;;18.40;99.90;;;;;;5032958;28;20186;-88
2021/07/25 05:33:56;;;;;;;17.87;8.10;;;18.40;99.90;;;;;;5056904;28;20228;-89
2021/07/25 05:36:21;;;;;;;13.73;7.87;;;18.40;99.90;;;;;;5054398;28;20454;-87
2021/07/25 05:38:47;;;;;;;11.67;8.63;;;18.40;99.90;;;;;;5057878;28;20521;-87
2021/07/25 05:41:13;;;;;;;16.83;8.30;;;18.40;99.90;;;;;;5056347;28;20227;-87
2021/07/25 05:43:39;;;;;;;16.87;9.20;;;18.40;99.90;;;;;;5022378;28;20651;-87
2021/07/25 05:46:04;;;;;;;12.80;8.23;;;18.50;99.90;;;;;;5040018;28;20200;-87
2021/07/25 05:48:30;;;;;;;18.83;8.73;;;18.50;99.90;;;;;;5055400;28;20253;-87
2021/07/25 05:50:57;;;;;;;13.70;7.80;;;18.60;99.90;;;;;;5018748;28;20883;-88
2021/07/25 05:53:22;;;;;;;10.60;7.30;;;18.60;99.90;;;;;;5005917;28;20225;-87
2021/07/25 05:55:48;;;;;;;14.87;7.20;;;18.60;99.90;;;;;;5052168;28;20194;-87
2021/07/25 05:58:14;;;;;;;12.67;8.13;;;18.50;99.90;;;;;;5037104;28;20705;-86
2021/07/25 06:00:40;;;;;;;15.33;7.80;;;18.60;99.90;;;;;;5033830;28;20336;-91
2021/07/25 06:03:05;;;;;;;14.53;9.63;;;18.50;99.90;;;;;;5008602;28;20224;-89
2021/07/25 06:05:34;;;;;;;15.00;8.97;;;18.60;99.90;;;;;;5013638;28;20687;-88
2021/07/25 06:08:01;;;;;;;15.17;6.73;;;18.60;99.90;;;;;;5039754;28;20306;-86
2021/07/25 06:10:28;;;;;;;17.63;9.40;;;18.60;99.90;;;;;;5040343;28;21259;-87
2021/07/25 06:12:56;;;;;;;14.13;7.73;;;18.60;99.90;;;;;;5058055;28;20221;-87
2021/07/25 06:15:22;;;;;;;13.70;7.10;;;18.60;99.90;;;;;;5032262;28;20283;-89
2021/07/25 06:17:49;;;;;;;13.07;7.90;;;18.60;99.90;;;;;;5049588;28;20259;-88
2021/07/25 06:20:15;;;;;;;11.87;7.20;;;18.70;99.90;;;;;;5065581;28;20224;-89
2021/07/25 06:22:46;;;;;;;13.67;7.13;;;18.70;99.90;;;;;;5058197;28;20560;-87
2021/07/25 06:25:13;;;;;;;10.60;6.87;;;18.70;99.90;;;;;;5059958;28;20213;-87
2021/07/25 06:27:40;;;;;;;10.20;7.40;;;18.80;99.90;;;;;;5058154;28;20221;-87
2021/07/25 06:30:08;;;;;;;9.70;7.17;;;18.70;99.90;;;;;;5058448;28;20217;-87
2021/07/25 06:33:00;;;;;;;17.33;8.30;;;18.70;99.90;;;;;;5056766;28;20237;-87
2021/07/25 06:35:31;;;;;;;10.27;6.70;;;18.70;99.90;;;;;;5065074;28;20237;-87
2021/07/25 06:38:05;;;;;;;10.17;7.10;;;18.70;99.90;;;;;;5058893;28;20216;-86
2021/07/25 06:40:32;;;;;;;13.93;7.40;;;18.70;99.90;;;;;;5057763;28;20720;-89
2021/07/25 06:42:59;;;;;;;16.43;7.53;;;18.60;99.90;;;;;;5059338;28;20204;-89
2021/07/25 06:45:26;;;;;;;10.00;7.60;;;18.70;99.90;;;;;;5058130;28;20240;-91
2021/07/25 06:47:52;;;;;;;13.90;6.97;;;18.70;99.90;;;;;;5056046;28;20775;-89
2021/07/25 06:50:20;;;;;;;10.83;6.40;;;18.60;99.90;;;;;;5056447;28;20233;-90
2021/07/25 06:52:51;;;;;;;11.93;6.27;;;18.50;99.90;;;;;;5058419;28;20189;-89
2021/07/25 06:55:18;;;;;;;8.30;5.80;;;18.40;99.90;;;;;;5060005;28;20308;-88
2021/07/25 06:57:44;;;;;;;15.43;6.87;;;18.30;99.90;;;;;;5056954;28;20270;-86
2021/07/25 07:00:10;;;;;;;11.73;7.27;;;18.30;99.90;;;;;;5020588;28;20605;-87
2021/07/25 07:02:47;;;;;;;8.50;5.57;;;18.30;99.90;;;;;;5014610;28;20217;-87
2021/07/25 07:05:29;;;;;;;7.93;5.97;;;18.30;99.90;;;;;;5038941;28;20280;-86
2021/07/25 07:07:57;;;;;;;14.30;6.70;;;18.40;99.90;;;;;;5038878;28;20228;-88
2021/07/25 07:10:28;;;;;;;11.47;7.57;;;18.30;99.90;;;;;;5038103;28;20595;-87
2021/07/25 07:12:55;;;;;;;11.50;6.80;;;18.40;99.90;;;;;;5054395;28;20601;-87
2021/07/25 07:15:23;;;;;;;8.00;5.73;;;18.40;99.90;;;;;;5062074;28;20221;-86
2021/07/25 07:17:50;;;;;;;11.63;6.27;;;18.40;99.90;;;;;;5071122;28;20201;-89
2021/07/25 07:20:16;;;;;;;11.23;4.90;;;18.40;99.90;;;;;;5050395;28;20221;-88
2021/07/25 07:22:42;;;;;;;7.90;5.53;;;18.30;99.90;;;;;;5040955;28;20231;-89
2021/07/25 07:25:08;;;;;;;9.10;6.70;;;18.30;99.90;;;;;;5041224;28;20222;-86
2021/07/25 07:27:35;;;;;;;12.23;7.43;;;18.40;99.90;;;;;;5040083;28;20569;-90
2021/07/25 07:30:04;;;;;;;8.20;4.27;;;18.50;99.90;;;;;;5014250;28;20247;-87
2021/07/25 07:32:30;;;;;;;11.80;6.17;;;18.50;99.90;;;;;;5032939;28;20214;-88
2021/07/25 07:34:56;;;;;;;9.27;5.73;;;18.50;99.90;;;;;;5042494;28;20217;-85
2021/07/25 07:37:21;;;;;;;9.30;6.27;;;18.40;99.90;;;;;;5024036;28;21104;-86
2021/07/25 07:39:47;;;;;;;9.03;5.37;;;18.40;99.90;;;;;;5040984;28;20276;-86
2021/07/25 07:42:13;;;;;;;8.20;5.33;;;18.50;99.90;;;;;;5022616;28;20250;-85
2021/07/25 07:44:40;;;;;;;13.10;6.17;;;18.50;99.90;;;;;;5039983;28;20847;-84
2021/07/25 07:47:06;;;;;;;9.67;7.07;;;18.50;99.90;;;;;;5021421;28;20664;-88
2021/07/25 07:49:32;;;;;;;6.73;4.90;;;18.60;99.90;;;;;;5038343;28;20198;-88
2021/07/25 07:51:57;;;;;;;10.53;5.63;;;18.50;99.90;;;;;;5023718;28;20252;-91
2021/07/25 07:54:23;;;;;;;7.40;5.30;;;18.60;99.90;;;;;;5034046;28;20267;-85
2021/07/25 07:56:49;;;;;;;12.23;6.97;;;18.60;99.90;;;;;;5043851;28;20585;-88
2021/07/25 07:59:15;;;;;;;10.30;5.90;;;18.70;99.90;;;;;;5037875;28;20232;-90
2021/07/25 08:01:41;;;;;;;9.17;5.57;;;18.70;99.90;;;;;;5020294;28;20194;-87
2021/07/25 08:04:06;;;;;;;9.07;6.43;;;18.80;99.90;;;;;;5021976;28;20280;-86
2021/07/25 08:06:32;;;;;;;11.17;6.47;;;18.80;99.90;;;;;;5034604;28;21231;-85
2021/07/25 08:08:58;;;;;;;11.40;7.30;;;18.90;99.90;;;;;;5012656;28;20304;-87
2021/07/25 08:11:24;;;;;;;14.97;7.70;;;19.00;99.90;;;;;;5025716;28;20236;-87
2021/07/25 08:13:49;;;;;;;12.00;6.63;;;19.10;99.90;;;;;;5009736;28;21058;-86
2021/07/25 08:16:15;;;;;;;8.27;5.90;;;19.00;99.90;;;;;;5026735;28;20182;-84
2021/07/25 08:18:41;;;;;;;9.83;7.03;;;19.10;99.90;;;;;;5027178;28;20232;-85
2021/07/25 08:21:07;;;;;;;8.73;4.43;;;19.10;99.90;;;;;;5027023;28;20307;-86
2021/07/25 08:23:33;;;;;;;9.53;6.47;;;19.20;99.90;;;;;;5028906;28;20572;-86
2021/07/25 08:25:59;;;;;;;8.03;5.40;;;19.20;99.90;;;;;;5028977;28;20547;-87
2021/07/25 08:28:25;;;;;;;10.63;5.93;;;19.10;99.90;;;;;;5012600;28;20735;-87
2021/07/25 08:30:51;;;;;;;14.93;6.97;;;19.20;99.90;;;;;;5043678;28;20328;-86
2021/07/25 08:33:17;;;;;;;10.03;5.70;;;19.10;99.90;;;;;;5012532;28;20225;-87
2021/07/25 08:35:43;;;;;;;7.17;5.67;;;19.20;99.90;;;;;;5040989;28;20256;-91
2021/07/25 08:38:09;;;;;;;15.13;5.27;;;19.30;99.90;;;;;;5024299;28;20218;-90
2021/07/25 08:40:35;;;;;;;14.73;7.37;;;19.40;99.90;;;;;;5030246;28;20182;-89
2021/07/25 08:43:12;;;;;;;9.97;6.23;;;19.60;99.90;;;;;;5011144;28;20194;-86
2021/07/25 08:45:41;;;;;;;4.53;3.97;;;19.70;99.90;;;;;;5029767;28;20697;-88
2021/07/25 08:48:18;;;;;;;12.63;6.10;;;19.70;99.90;;;;;;5059889;28;20231;-86
2021/07/25 08:50:59;;;;;;;15.00;5.80;;;19.70;99.90;;;;;;5027134;28;20782;-90
2021/07/25 08:53:27;;;;;;;9.40;6.37;;;19.60;99.90;;;;;;5048834;28;20229;-88
2021/07/25 08:55:53;;;;;;;11.43;6.80;;;19.50;99.90;;;;;;5037094;28;20221;-85
2021/07/25 08:58:22;;;;;;;9.20;7.03;;;19.60;99.90;;;;;;5036878;28;20201;-84
2021/07/25 09:00:50;;;;;;;9.83;6.90;;;19.60;99.90;;;;;;5020311;28;20308;-86
2021/07/25 09:03:17;;;;;;;8.30;5.57;;;19.60;99.90;;;;;;5043633;28;20278;-85
2021/07/25 09:05:43;;;;;;;10.97;6.40;;;19.60;99.90;;;;;;5047522;28;20234;-84
2021/07/25 09:08:10;;;;;;;11.67;7.57;;;19.70;99.90;;;;;;5022241;28;20309;-89
2021/07/25 09:10:36;;;;;;;10.87;7.30;;;19.70;99.90;;;;;;5011233;28;20221;-88
2021/07/25 09:13:02;;;;;;;8.93;6.07;;;19.70;99.90;;;;;;5024790;28;20297;-87
2021/07/25 09:15:32;;;;;;;8.70;5.60;;;19.60;99.90;;;;;;5026790;28;20225;-86
2021/07/25 09:17:59;;;;;;;10.23;6.27;;;19.70;99.90;;;;;;5027631;28;20245;-87
2021/07/25 09:20:41;;;;;;;12.43;6.80;;;19.80;99.90;;;;;;5025842;28;20265;-86
2021/07/25 09:23:13;;;;;;;8.43;5.73;;;19.70;99.90;;;;;;5027613;28;20317;-85
2021/07/25 09:25:40;;;;;;;8.57;6.43;;;19.70;99.90;;;;;;5028112;28;20222;-84
2021/07/25 09:28:31;;;;;;;8.73;5.67;;;19.70;99.90;;;;;;5045634;28;20249;-87
2021/07/25 09:31:10;;;;;;;11.70;5.93;;;19.80;99.90;;;;;;5028105;28;20226;-87
2021/07/25 09:33:36;;;;;;;11.47;6.93;;;20.00;99.90;;;;;;5043627;28;20300;-88
2021/07/25 09:36:08;;;;;;;9.47;6.33;;;20.30;99.90;;;;;;5029052;28;20234;-85
2021/07/25 09:38:34;;;;;;;8.37;6.00;;;20.20;99.90;;;;;;5043969;28;20228;-84
2021/07/25 09:41:01;;;;;;;6.57;4.70;;;20.30;99.90;;;;;;5043843;28;20241;-85
2021/07/25 09:43:27;;;;;;;11.10;6.40;;;20.40;99.90;;;;;;5036699;28;20220;-84
2021/07/25 09:45:54;;;;;;;8.90;5.83;;;20.50;99.90;;;;;;5046022;28;20758;-88
2021/07/25 09:48:23;;;;;;;8.17;5.50;;;20.60;99.90;;;;;;5031236;28;20225;-83
2021/07/25 09:50:51;;;;;;;9.90;6.20;;;20.80;99.90;;;;;;5036312;28;20373;-85
2021/07/25 09:53:17;;;;;;;7.03;5.30;;;21.20;99.90;;;;;;5043904;28;20212;-85
2021/07/25 09:55:43;;;;;;;10.37;7.17;;;21.90;99.90;;;;;;5046573;28;20214;-84
2021/07/25 09:58:09;;;;;;;5.73;5.03;;;22.90;99.90;;;;;;5054698;28;20193;-84
2021/07/25 10:00:46;;;;;;;5.87;4.80;;;23.50;99.90;;;;;;5020171;28;20885;-83
2021/07/25 10:03:18;;;;;;;6.20;5.17;;;24.00;99.90;;;;;;5048924;28;20687;-84
2021/07/25 10:05:47;;;;;;;6.33;4.87;;;24.60;99.90;;;;;;5046776;28;20244;-87
2021/07/25 10:08:21;;;;;;;8.00;4.90;;;25.30;99.90;;;;;;5036904;28;20212;-86
2021/07/25 10:10:48;;;;;;;5.82;4.30;;;26.20;99.90;;;;;;5035601;28;20188;-88
2021/07/25 10:13:23;;;;;;;5.75;4.53;;;26.50;99.90;;;;;;5019382;28;20186;-84
2021/07/25 10:15:59;;;;;;;6.90;3.85;;;26.90;99.90;;;;;;5036961;28;20268;-86
2021/07/25 10:18:27;;;;;;;6.60;4.38;;;26.80;99.90;;;;;;5035905;28;20252;-91
2021/07/25 10:21:00;;;;;;;5.90;4.20;;;26.30;99.90;;;;;;5035452;28;20652;-85
2021/07/25 10:23:40;;;;;;;6.88;4.10;;;25.70;99.90;;;;;;5036710;28;20210;-86
2021/07/25 10:26:07;;;;;;;5.85;4.10;;;24.80;99.90;;;;;;5037427;28;20229;-87
2021/07/25 10:28:35;;;;;;;7.03;4.55;;;24.20;99.90;;;;;;5033882;28;20578;-85
2021/07/25 10:31:02;;;;;;;5.03;4.03;;;24.40;99.90;;;;;;5036657;28;21520;-87
2021/07/25 10:33:28;;;;;;;6.10;4.43;;;24.60;99.90;;;;;;5035865;28;20661;-87
2021/07/25 10:35:58;;;;;;;6.00;4.25;;;24.60;99.90;;;;;;5033311;28;20276;-87
2021/07/25 10:38:24;;;;;;;6.82;4.63;;;24.50;99.90;;;;;;5036094;28;20235;-85
2021/07/25 10:40:50;;;;;;;6.15;3.83;;;25.00;99.90;;;;;;5016995;28;20301;-88
2021/07/25 10:43:23;;;;;;;6.25;4.45;;;24.80;99.90;;;;;;5037221;28;20267;-86
2021/07/25 10:46:14;;;;;;;5.97;4.57;;;25.00;99.90;;;;;;5035125;28;20233;-90
2021/07/25 10:48:59;;;;;;;7.70;4.38;;;26.20;99.90;;;;;;5033840;28;20210;-93
2021/07/25 10:51:25;;;;;;;9.35;4.40;;;27.20;99.90;;;;;;5036956;28;20230;-86
2021/07/25 10:53:51;;;;;;;5.45;4.22;;;28.30;99.90;;;;;;5029133;28;20971;-86
2021/07/25 10:56:37;;;;;;;4.35;3.70;;;28.00;99.90;;;;;;5014819;28;20218;-89
2021/07/25 10:59:02;;;;;;;6.55;3.97;;;27.10;99.90;;;;;;5031690;28;20217;-85
2021/07/25 11:01:54;;;;;;;6.15;3.72;;;27.60;99.90;;;;;;5031718;28;20277;-88
2021/07/25 11:05:03;;;;;;;5.57;4.47;;;27.90;99.90;;;;;;5019256;28;20459;-85
2021/07/25 11:07:33;;;;;;;7.57;3.75;;;28.50;99.90;;;;;;5030609;28;20245;-88
2021/07/25 11:10:12;;;;;;;6.45;3.70;;;29.30;99.90;;;;;;5036114;28;20281;-89
2021/07/25 11:12:50;;;;;;;10.88;4.25;;;29.20;99.90;;;;;;5051657;28;20222;-86
2021/07/25 11:15:31;;;;;;;6.40;4.20;;;28.70;99.90;;;;;;5033604;28;20287;-92
2021/07/25 11:18:12;;;;;;;6.88;4.18;;;28.40;99.90;;;;;;5049085;28;20210;-85
2021/07/25 11:20:55;;;;;;;4.80;4.30;;;27.90;99.90;;;;;;5037556;28;20222;-88
2021/07/25 11:23:21;;;;;;;4.85;3.70;;;27.50;99.90;;;;;;5038177;28;20267;-89
2021/07/25 11:25:48;;;;;;;6.15;4.40;;;27.50;99.90;;;;;;5037938;28;20213;-86
2021/07/25 11:28:42;;;;;;;5.90;4.05;;;27.60;99.90;;;;;;5040225;28;20683;-88
2021/07/25 11:31:10;;;;;;;14.20;4.78;;;27.00;99.90;;;;;;5053642;28;20225;-88
2021/07/25 11:33:45;;;;;;;6.07;4.03;;;27.00;99.90;;;;;;5019968;28;20222;-84
2021/07/25 11:36:17;;;;;;;6.82;4.50;;;27.00;99.90;;;;;;5039316;28;20673;-85
2021/07/25 11:38:47;;;;;;;7.22;5.32;;;26.30;99.90;;;;;;5064545;28;20213;-86
2021/07/25 11:41:18;;;;;;;6.55;4.43;;;26.00;99.90;;;;;;5050011;28;20230;-86
2021/07/25 11:43:51;;;;;;;7.03;4.47;;;25.70;99.90;;;;;;5030586;28;20190;-84
2021/07/25 11:46:27;;;;;;;7.53;4.43;;;25.30;99.90;;;;;;5038366;28;20970;-87
2021/07/25 11:49:12;;;;;;;8.50;4.70;;;25.80;99.90;;;;;;5037515;28;20681;-87
2021/07/25 11:51:42;;;;;;;6.22;4.25;;;26.70;99.90;;;;;;5038619;28;20241;-84
2021/07/25 11:54:08;;;;;;;5.68;4.05;;;27.30;99.90;;;;;;5038756;28;20252;-85
2021/07/25 11:56:34;;;;;;;5.00;4.50;;;27.70;99.90;;;;;;5027728;28;20226;-85
2021/07/25 11:59:04;;;;;;;8.43;3.53;;;27.00;99.90;;;;;;5042613;28;20228;-85
2021/07/25 12:01:31;;;;;;;4.40;4.00;;;27.30;99.90;;;;;;5059040;28;20231;-85
2021/07/25 12:03:57;;;;;;;5.20;3.38;;;27.20;99.90;;;;;;5058274;28;20213;-87
2021/07/25 12:06:23;;;;;;;6.03;4.28;;;27.00;99.90;;;;;;5042623;28;20555;-86
2021/07/25 12:09:06;;;;;;;6.40;4.25;;;27.30;99.90;;;;;;5042613;28;20255;-88
2021/07/25 12:11:33;;;;;;;5.32;4.18;;;27.00;99.90;;;;;;5051792;28;20213;-87
2021/07/25 12:13:59;;;;;;;6.40;4.45;;;27.00;99.90;;;;;;5038831;28;20310;-87
2021/07/25 12:16:25;;;;;;;5.95;3.90;;;27.10;99.90;;;;;;5040571;28;20674;-84
2021/07/25 12:18:51;;;;;;;7.53;4.18;;;27.30;99.90;;;;;;5037824;28;20245;-88
2021/07/25 12:21:31;;;;;;;5.20;4.32;;;26.80;99.90;;;;;;5039377;28;20218;-84
2021/07/25 12:24:00;;;;;;;5.97;4.68;;;26.20;99.90;;;;;;5038512;28;20300;-84
2021/07/25 12:26:42;;;;;;;5.30;4.55;;;26.50;99.90;;;;;;5050482;28;20271;-84
2021/07/25 12:29:40;;;;;;;6.60;4.05;;;26.60;99.90;;;;;;5040323;28;20698;-84
2021/07/25 12:32:33;;;;;;;7.68;4.38;;;26.30;99.90;;;;;;5039062;28;20222;-88
2021/07/25 12:35:08;;;;;;;5.82;4.57;;;26.20;99.90;;;;;;5037068;28;20583;-85
2021/07/25 12:37:44;;;;;;;6.60;4.80;;;26.30;99.90;;;;;;5037498;28;20231;-85
2021/07/25 12:40:19;;;;;;;8.05;5.20;;;26.60;99.90;;;;;;5037738;28;20178;-85
2021/07/25 12:42:50;;;;;;;7.75;6.15;;;26.50;99.90;;;;;;5038501;28;20214;-95
2021/07/25 12:45:29;;;;;;;7.85;5.32;;;26.50;99.90;;;;;;5040526;28;20817;-90
2021/07/25 12:48:25;;;;;;;6.55;5.22;;;26.50;99.90;;;;;;5040239;28;20312;-89
2021/07/25 12:53:30;;;;;;;8.10;5.40;;;26.40;99.90;;;;;;5042137;28;20233;-93